createdAt,value
2023-05-19T00:16:39.824Z,64.66
2023-05-19T00:46:43.816Z,66.03
2023-05-19T01:16:47.112Z,66.96
2023-05-19T01:46:51.673Z,68.71
2023-05-19T02:16:54.739Z,69.74
2023-05-19T02:46:58.185Z,70.96
2023-05-19T03:17:01.213Z,71.68
2023-05-19T03:47:04.585Z,72.61
2023-05-19T04:17:09.381Z,73.79
2023-05-19T04:47:13.321Z,73.16
2023-05-19T05:17:17.019Z,72.38
2023-05-19T05:47:20.621Z,71.19
2023-05-19T06:17:23.622Z,69.75
2023-05-19T06:47:27.616Z,69.23
2023-05-19T07:17:32.031Z,67.58
2023-05-19T07:47:35.679Z,65.70
2023-05-19T08:17:42.760Z,64.21
2023-05-19T08:47:46.480Z,62.24
2023-05-19T09:17:50.678Z,61.24
2023-05-19T09:47:56.478Z,60.35
2023-05-19T10:18:00.513Z,59.07
2023-05-19T10:48:06.098Z,58.00
2023-05-19T11:18:10.126Z,59.54
2023-05-19T11:48:13.444Z,59.88
2023-05-19T12:18:17.718Z,58.06
2023-05-19T12:48:20.904Z,58.47
2023-05-19T13:18:24.619Z,58.01
2023-05-19T13:48:28.642Z,59.09
2023-05-19T14:18:33.731Z,58.14
2023-05-19T14:48:36.797Z,60.39
2023-05-19T15:18:41.545Z,61.68
2023-05-19T15:48:44.515Z,63.22
2023-05-19T16:18:50.558Z,63.57
2023-05-19T16:48:53.596Z,64.89
2023-05-19T17:18:56.790Z,65.67
2023-05-19T17:49:02.070Z,66.89
2023-05-19T18:19:07.411Z,67.97
2023-05-19T18:49:13.641Z,68.96
2023-05-19T19:19:17.582Z,70.30
2023-05-19T19:49:20.794Z,71.21
2023-05-19T20:19:24.362Z,72.11
2023-05-19T20:49:27.345Z,73.07
2023-05-19T21:19:34.436Z,74.05
2023-05-19T21:49:37.788Z,74.43
2023-05-19T22:19:41.522Z,75.16
2023-05-19T22:49:44.718Z,75.78
2023-05-19T23:19:51.164Z,76.58
2023-05-19T23:49:54.317Z,77.56
